Agana, Guam
Current Conditions -  °F | °C
As of 11:54 PM on Friday 24 Oct 2014 (Local Time) from PGUM Reporting Station
Clear Clear  
Wind Chill: 81°   Ceiling: Unl
Heat Index: 88°   Visibility: 10mi
Dew Point: 77°   Wind: 8mph
Humidity: 88%   Direction: 70°ENE
Pressure: 29.92"   Gusts: NA
Location:  13.4751°N, 144.7484°E
Report Text: PGUM 241354Z 07007KT 10SM CLR 27/25 A2992 RMK AO2 SLP122 T02720250 403220256 $
Loading
Personal Weather Stations






























Interactive Weather Map
Tropical Storm Tracking
New forecast layout! Learn more

10-Day Weather Forecast

Advertisements
Track Severe Weather on mobile